createdAt,value
2022-10-24T00:01:30.076Z,34.94
2022-10-24T00:03:59.717Z,34.59
2022-10-24T00:06:27.660Z,35.01
2022-10-24T00:08:55.625Z,34.58
2022-10-24T00:11:27.621Z,34.54
2022-10-24T00:13:57.406Z,34.66
2022-10-24T00:16:25.333Z,34.73
2022-10-24T00:18:53.484Z,34.98
2022-10-24T00:21:22.799Z,34.72
2022-10-24T00:23:50.825Z,34.69
2022-10-24T00:26:18.693Z,34.73
2022-10-24T00:28:47.518Z,34.81
2022-10-24T00:31:18.530Z,34.66
2022-10-24T00:33:47.364Z,34.62
2022-10-24T00:36:17.756Z,35.02
2022-10-24T00:38:47.245Z,34.85
2022-10-24T00:41:17.196Z,34.76
2022-10-24T00:43:47.204Z,34.87
2022-10-24T00:46:17.789Z,34.61
2022-10-24T00:48:48.408Z,34.51
2022-10-24T00:51:24.563Z,34.94
2022-10-24T00:56:35.459Z,34.64
2022-10-24T00:59:06.176Z,34.72
2022-10-24T01:01:35.075Z,34.68
2022-10-24T01:04:03.442Z,34.71
2022-10-24T01:06:45.951Z,34.53
2022-10-24T01:09:29.026Z,34.60
2022-10-24T01:12:11.487Z,34.71
2022-10-24T01:14:50.289Z,34.71
2022-10-24T01:17:24.289Z,34.79
2022-10-24T01:20:27.565Z,34.89
2022-10-24T01:23:09.588Z,34.86
2022-10-24T01:25:51.102Z,34.56
2022-10-24T01:28:22.752Z,34.81
2022-10-24T01:30:58.992Z,35.07
2022-10-24T01:33:33.526Z,34.62
2022-10-24T01:36:08.058Z,34.53
2022-10-24T01:38:42.077Z,34.96
2022-10-24T01:41:13.761Z,34.96
2022-10-24T01:43:47.308Z,34.79
2022-10-24T01:46:20.994Z,35.02
2022-10-24T01:48:53.360Z,34.83
2022-10-24T01:51:25.314Z,34.86
2022-10-24T01:53:54.883Z,34.93
2022-10-24T01:56:25.247Z,34.60
2022-10-24T01:58:53.159Z,34.82
2022-10-24T02:01:26.078Z,34.61
2022-10-24T02:03:57.701Z,34.95
2022-10-24T02:06:29.500Z,34.82
2022-10-24T02:09:00.703Z,34.56
2022-10-24T02:11:28.748Z,34.70
2022-10-24T02:14:01.102Z,34.88
2022-10-24T02:16:31.096Z,34.78
2022-10-24T02:18:59.897Z,34.75
2022-10-24T02:21:32.944Z,34.65
2022-10-24T02:24:07.662Z,34.79
2022-10-24T02:26:40.937Z,34.94
2022-10-24T02:29:16.202Z,35.00
2022-10-24T02:31:51.349Z,34.76
2022-10-24T02:34:21.284Z,34.89
2022-10-24T02:36:51.221Z,34.98
2022-10-24T02:39:20.658Z,35.24
2022-10-24T02:41:51.177Z,35.05
2022-10-24T02:44:20.658Z,34.87
2022-10-24T02:46:53.854Z,35.01
2022-10-24T02:49:21.980Z,35.31
2022-10-24T02:51:50.952Z,34.95
2022-10-24T02:54:19.148Z,34.83
2022-10-24T02:56:50.668Z,35.30
2022-10-24T02:59:18.604Z,35.28
2022-10-24T03:01:46.549Z,34.99
2022-10-24T03:04:15.908Z,35.30
2022-10-24T03:06:43.774Z,35.34
2022-10-24T03:09:11.700Z,34.99
2022-10-24T03:11:39.804Z,35.31
2022-10-24T03:14:07.720Z,35.17
2022-10-24T03:16:35.730Z,35.43
2022-10-24T03:19:03.586Z,35.04
2022-10-24T03:21:33.068Z,35.45
2022-10-24T03:24:01.031Z,35.01
2022-10-24T03:26:28.949Z,35.54
2022-10-24T03:28:56.817Z,35.13
2022-10-24T03:31:24.830Z,35.20
2022-10-24T03:33:52.801Z,35.58
2022-10-24T03:36:20.773Z,35.44
2022-10-24T03:38:50.066Z,35.60
2022-10-24T03:41:17.977Z,35.51
2022-10-24T03:43:45.863Z,35.19
2022-10-24T03:46:13.733Z,35.47
2022-10-24T03:48:41.640Z,35.36
2022-10-24T03:51:09.597Z,35.16
2022-10-24T03:53:37.475Z,35.47
2022-10-24T03:56:07.478Z,35.45
2022-10-24T03:58:35.395Z,35.51
2022-10-24T04:01:03.385Z,35.29
2022-10-24T04:03:31.360Z,35.15
2022-10-24T04:05:59.339Z,35.31
2022-10-24T04:08:27.328Z,35.34
2022-10-24T04:10:55.194Z,35.46
2022-10-24T04:13:24.445Z,35.45
2022-10-24T04:15:52.375Z,35.68
2022-10-24T04:18:20.343Z,35.30
2022-10-24T04:20:48.384Z,35.75
2022-10-24T04:23:16.255Z,35.41
2022-10-24T04:25:44.679Z,35.49
2022-10-24T04:28:12.552Z,35.71
2022-10-24T04:33:14.676Z,35.72
2022-10-24T04:35:48.873Z,35.87
2022-10-24T04:38:17.134Z,35.65
2022-10-24T04:40:46.867Z,35.90
2022-10-24T04:43:14.743Z,35.61
2022-10-24T04:45:44.089Z,35.80
2022-10-24T04:48:12.018Z,35.72
2022-10-24T04:50:42.074Z,35.68
2022-10-24T04:53:14.234Z,35.68
2022-10-24T04:55:42.426Z,35.75
2022-10-24T04:58:10.416Z,35.65
2022-10-24T05:00:38.437Z,36.04
2022-10-24T05:03:07.735Z,35.92
2022-10-24T05:05:35.659Z,35.70
2022-10-24T05:08:03.579Z,36.03
2022-10-24T05:10:31.620Z,36.15
2022-10-24T05:12:59.529Z,35.98
2022-10-24T05:15:29.944Z,35.78
2022-10-24T05:17:57.904Z,36.16
2022-10-24T05:20:27.797Z,36.02
2022-10-24T05:22:55.710Z,36.16
2022-10-24T05:25:23.704Z,36.27
2022-10-24T05:27:51.794Z,35.98
2022-10-24T05:30:19.754Z,36.01
2022-10-24T05:32:47.838Z,36.16
2022-10-24T05:35:16.273Z,36.11
2022-10-24T05:37:45.494Z,36.30
2022-10-24T05:40:14.121Z,36.18
2022-10-24T05:42:42.527Z,36.41
2022-10-24T05:45:12.233Z,36.07
2022-10-24T05:47:40.137Z,36.24
2022-10-24T05:50:09.348Z,36.33
2022-10-24T05:52:37.290Z,36.53
2022-10-24T05:55:08.666Z,36.38
2022-10-24T05:57:37.576Z,36.62
2022-10-24T06:00:07.675Z,36.57
2022-10-24T06:02:40.028Z,36.33
2022-10-24T06:05:09.055Z,36.58
2022-10-24T06:07:37.696Z,36.76
2022-10-24T06:10:08.287Z,36.20
2022-10-24T06:12:37.161Z,36.56
2022-10-24T06:15:06.815Z,36.51
2022-10-24T06:17:35.387Z,36.35
2022-10-24T06:20:03.267Z,36.53
2022-10-24T06:22:31.158Z,36.62
2022-10-24T06:25:00.037Z,36.46
2022-10-24T06:27:29.420Z,36.56
2022-10-24T06:29:57.404Z,36.79
2022-10-24T06:32:25.678Z,36.56
2022-10-24T06:34:53.598Z,36.48
2022-10-24T06:37:21.497Z,36.74
2022-10-24T06:39:49.394Z,36.57
2022-10-24T06:42:17.433Z,36.54
2022-10-24T06:44:46.764Z,36.97
2022-10-24T06:47:14.760Z,37.05
2022-10-24T06:49:42.723Z,36.59
2022-10-24T06:52:10.621Z,36.66
2022-10-24T06:54:39.160Z,36.92
2022-10-24T06:57:07.027Z,37.21
2022-10-24T06:59:34.941Z,37.50
2022-10-24T07:02:06.002Z,37.93
2022-10-24T07:04:34.407Z,37.94
2022-10-24T07:07:02.257Z,38.05
2022-10-24T07:09:30.607Z,37.90
2022-10-24T07:11:59.385Z,37.69
2022-10-24T07:14:28.402Z,38.08
2022-10-24T07:16:56.480Z,37.73
2022-10-24T07:19:25.842Z,37.62
2022-10-24T07:21:53.791Z,37.40
2022-10-24T07:24:22.704Z,37.73
2022-10-24T07:26:50.739Z,37.56
2022-10-24T07:29:18.745Z,37.58
2022-10-24T07:31:47.913Z,37.62
2022-10-24T07:34:16.160Z,37.37
2022-10-24T07:36:45.604Z,37.31
2022-10-24T07:39:14.592Z,37.41
2022-10-24T07:41:43.517Z,37.21
2022-10-24T07:44:12.134Z,37.12
2022-10-24T07:46:41.926Z,37.28
2022-10-24T07:49:10.841Z,37.15
2022-10-24T07:51:38.731Z,37.19
2022-10-24T07:54:08.147Z,36.74
2022-10-24T07:56:36.445Z,36.73
2022-10-24T07:59:09.002Z,37.10
2022-10-24T08:01:41.763Z,37.01
2022-10-24T08:04:10.652Z,36.75
2022-10-24T08:06:38.735Z,36.49
2022-10-24T08:09:08.038Z,36.71
2022-10-24T08:11:35.938Z,36.79
2022-10-24T08:14:03.874Z,36.44
2022-10-24T08:16:31.823Z,36.75
2022-10-24T08:19:00.042Z,36.52
2022-10-24T08:21:27.950Z,36.21
2022-10-24T08:23:56.708Z,36.39
2022-10-24T08:26:27.026Z,36.40
2022-10-24T08:28:57.539Z,36.39
2022-10-24T08:31:26.313Z,36.23
2022-10-24T08:33:55.815Z,36.05
2022-10-24T08:36:26.358Z,36.09
2022-10-24T08:38:54.365Z,36.00
2022-10-24T08:41:30.086Z,36.25
2022-10-24T08:44:00.629Z,36.00
2022-10-24T08:46:51.947Z,36.00
2022-10-24T08:49:27.550Z,35.86
2022-10-24T08:52:00.045Z,35.99
2022-10-24T08:54:34.100Z,35.82
2022-10-24T08:57:04.902Z,36.31
2022-10-24T08:59:36.786Z,35.86
2022-10-24T09:02:14.687Z,35.79
2022-10-24T09:04:50.606Z,36.09
2022-10-24T09:07:21.767Z,35.95
2022-10-24T09:09:51.798Z,36.18
2022-10-24T09:12:22.537Z,35.88
2022-10-24T09:14:55.678Z,36.02
2022-10-24T09:17:26.515Z,35.86
2022-10-24T09:19:56.504Z,35.96
2022-10-24T09:22:26.385Z,36.14
2022-10-24T09:24:59.062Z,36.22
2022-10-24T09:27:30.545Z,36.10
2022-10-24T09:29:59.836Z,35.89
2022-10-24T09:32:30.748Z,36.04
2022-10-24T09:35:02.182Z,35.92
2022-10-24T09:37:36.535Z,36.21
2022-10-24T09:40:22.219Z,35.79
2022-10-24T09:43:04.548Z,36.20
2022-10-24T09:45:39.730Z,36.22
2022-10-24T09:48:18.814Z,36.12
2022-10-24T09:50:49.826Z,36.53
2022-10-24T09:53:27.541Z,36.17
2022-10-24T09:55:59.243Z,36.33
2022-10-24T09:58:32.920Z,36.50
2022-10-24T10:01:06.868Z,36.70
2022-10-24T10:03:35.914Z,36.34
2022-10-24T10:06:15.678Z,36.43
2022-10-24T10:08:51.454Z,36.25
2022-10-24T10:11:26.689Z,36.25
2022-10-24T10:13:56.112Z,36.59
2022-10-24T10:16:26.768Z,36.58
2022-10-24T10:19:03.460Z,36.39
2022-10-24T10:21:56.321Z,36.44
2022-10-24T10:24:37.062Z,36.82
2022-10-24T10:27:26.957Z,36.52
2022-10-24T10:30:21.430Z,36.82
2022-10-24T10:32:59.520Z,36.62
2022-10-24T10:35:34.090Z,36.68
2022-10-24T10:38:17.096Z,36.80
2022-10-24T10:40:47.112Z,36.90
2022-10-24T10:43:34.620Z,36.85
2022-10-24T10:46:18.293Z,36.77
2022-10-24T10:48:58.001Z,37.01
2022-10-24T10:51:37.113Z,36.70
2022-10-24T10:54:13.659Z,36.94
2022-10-24T10:56:49.346Z,36.85
2022-10-24T10:59:30.064Z,36.88
2022-10-24T11:02:04.335Z,36.67
2022-10-24T11:04:38.365Z,36.87
2022-10-24T11:07:13.478Z,37.00
2022-10-24T11:09:46.169Z,36.81
2022-10-24T11:12:20.769Z,36.73
2022-10-24T11:14:54.010Z,36.97
2022-10-24T11:17:26.747Z,36.83
2022-10-24T11:20:02.878Z,36.93
2022-10-24T11:22:37.818Z,36.94
2022-10-24T11:25:10.675Z,37.01
2022-10-24T11:27:43.122Z,37.12
2022-10-24T11:30:17.209Z,37.00
2022-10-24T11:32:51.814Z,37.00
2022-10-24T11:35:28.959Z,36.95
2022-10-24T11:38:02.436Z,37.26
2022-10-24T11:40:31.355Z,37.05
2022-10-24T11:43:08.219Z,37.47
2022-10-24T11:45:44.280Z,37.39
2022-10-24T11:48:21.077Z,37.08
2022-10-24T11:50:54.090Z,37.43
2022-10-24T11:53:49.012Z,37.53
2022-10-24T11:56:23.672Z,37.50
2022-10-24T11:58:58.568Z,37.43
2022-10-24T12:01:52.580Z,37.33
2022-10-24T12:04:43.718Z,37.78
2022-10-24T12:07:56.097Z,37.58
2022-10-24T12:10:41.088Z,37.88
2022-10-24T12:13:27.534Z,37.94
2022-10-24T12:16:06.497Z,38.14
2022-10-24T12:18:38.236Z,37.93
2022-10-24T12:21:11.533Z,38.05
2022-10-24T12:23:41.523Z,37.88
2022-10-24T12:26:18.996Z,38.04
2022-10-24T12:28:55.921Z,37.86
2022-10-24T12:31:29.413Z,37.67
2022-10-24T12:34:34.451Z,37.64
2022-10-24T12:37:08.340Z,37.90
2022-10-24T12:39:38.460Z,37.48
2022-10-24T12:42:13.128Z,37.79
2022-10-24T12:44:51.610Z,37.53
2022-10-24T12:47:36.991Z,37.49
2022-10-24T12:50:42.041Z,37.83
2022-10-24T12:53:40.311Z,37.53
2022-10-24T12:59:21.073Z,37.80
2022-10-24T13:01:51.231Z,38.22
2022-10-24T13:04:45.527Z,38.09
2022-10-24T13:07:38.521Z,38.17
2022-10-24T13:10:35.531Z,38.26
2022-10-24T13:13:18.289Z,38.32
2022-10-24T13:15:54.453Z,38.50
2022-10-24T13:18:38.929Z,38.41
2022-10-24T13:21:17.914Z,38.65
2022-10-24T13:23:48.405Z,38.41
2022-10-24T13:26:39.700Z,38.62
2022-10-24T13:29:14.382Z,38.80
2022-10-24T13:31:49.160Z,38.71
2022-10-24T13:34:23.525Z,38.58
2022-10-24T13:36:58.361Z,38.41
2022-10-24T13:39:33.073Z,38.75
2022-10-24T13:42:09.729Z,38.20
2022-10-24T13:44:46.442Z,38.28
2022-10-24T13:47:20.087Z,38.43
2022-10-24T13:49:57.125Z,38.30
2022-10-24T13:52:30.991Z,38.50
2022-10-24T13:55:03.402Z,38.33
2022-10-24T13:57:36.341Z,38.45
2022-10-24T14:00:09.514Z,38.49
2022-10-24T14:02:42.456Z,38.41
2022-10-24T14:05:20.624Z,38.27
2022-10-24T14:07:49.177Z,38.41
2022-10-24T14:10:19.840Z,38.56
2022-10-24T14:12:51.999Z,38.11
2022-10-24T14:15:22.561Z,38.39
2022-10-24T14:18:02.282Z,38.40
2022-10-24T14:20:33.113Z,38.22
2022-10-24T14:23:01.075Z,38.12
2022-10-24T14:25:33.253Z,38.44
2022-10-24T14:28:04.490Z,38.37
2022-10-24T14:30:35.146Z,38.68
2022-10-24T14:33:22.758Z,38.40
2022-10-24T14:35:55.046Z,38.35
2022-10-24T14:38:26.975Z,38.47
2022-10-24T14:41:08.038Z,38.45
2022-10-24T14:43:42.119Z,38.75
2022-10-24T14:46:30.512Z,38.66
2022-10-24T14:49:20.040Z,38.59
2022-10-24T14:54:21.941Z,38.78
2022-10-24T14:56:52.134Z,38.54
2022-10-24T14:59:27.197Z,38.46
2022-10-24T15:01:57.208Z,38.83
2022-10-24T15:04:37.301Z,38.57
2022-10-24T15:07:16.386Z,38.63
2022-10-24T15:09:55.056Z,38.40
2022-10-24T15:12:34.133Z,38.69
2022-10-24T15:15:27.709Z,38.76
2022-10-24T15:18:00.766Z,38.43
2022-10-24T15:20:30.109Z,38.36
2022-10-24T15:23:00.255Z,38.77
2022-10-24T15:25:32.942Z,38.40
2022-10-24T15:28:02.514Z,38.68
2022-10-24T15:30:33.901Z,38.30
2022-10-24T15:33:02.973Z,38.27
2022-10-24T15:35:35.050Z,38.68
2022-10-24T15:38:12.201Z,38.48
2022-10-24T15:40:42.873Z,38.68
2022-10-24T15:43:12.450Z,38.57
2022-10-24T15:45:41.844Z,38.47
2022-10-24T15:48:10.281Z,38.63
2022-10-24T15:50:38.615Z,38.64
2022-10-24T15:53:06.774Z,38.87
2022-10-24T15:55:34.648Z,38.78
2022-10-24T15:58:03.142Z,38.95
2022-10-24T16:00:31.102Z,39.05
2022-10-24T16:03:04.423Z,39.12
2022-10-24T16:05:38.364Z,38.80
2022-10-24T16:08:06.807Z,39.07
2022-10-24T16:10:34.701Z,38.88
2022-10-24T16:13:02.578Z,39.10
2022-10-24T16:15:34.647Z,38.97
2022-10-24T16:18:04.656Z,38.85
2022-10-24T16:20:32.898Z,39.20
2022-10-24T16:23:00.856Z,39.09
2022-10-24T16:25:31.413Z,39.11
2022-10-24T16:27:59.372Z,39.17
2022-10-24T16:30:30.576Z,39.12
2022-10-24T16:32:58.553Z,39.00
2022-10-24T16:35:30.093Z,39.20
2022-10-24T16:37:59.587Z,38.88
2022-10-24T16:40:28.558Z,39.30
2022-10-24T16:42:57.670Z,39.29
2022-10-24T16:45:26.796Z,38.96
2022-10-24T16:47:54.794Z,38.84
2022-10-24T16:50:25.072Z,38.93
2022-10-24T16:52:56.313Z,39.03
2022-10-24T16:55:24.387Z,38.95
2022-10-24T16:57:52.601Z,38.91
2022-10-24T17:00:22.838Z,39.06
2022-10-24T17:02:52.393Z,38.91
2022-10-24T17:05:22.042Z,38.78
2022-10-24T17:07:50.622Z,39.22
2022-10-24T17:10:23.696Z,38.85
2022-10-24T17:12:54.050Z,38.95
2022-10-24T17:15:22.813Z,38.78
2022-10-24T17:17:51.138Z,38.74
2022-10-24T17:20:19.213Z,38.84
2022-10-24T17:22:48.130Z,38.91
2022-10-24T17:25:21.698Z,38.88
2022-10-24T17:27:50.689Z,38.96
2022-10-24T17:30:20.477Z,38.91
2022-10-24T17:32:49.193Z,38.75
2022-10-24T17:35:20.503Z,39.10
2022-10-24T17:37:57.157Z,39.14
2022-10-24T17:40:31.205Z,38.84
2022-10-24T17:42:59.624Z,38.98
2022-10-24T17:45:27.808Z,38.92
2022-10-24T17:47:55.960Z,38.92
2022-10-24T17:50:24.059Z,38.91
2022-10-24T17:52:52.237Z,39.07
2022-10-24T17:55:41.316Z,39.10
2022-10-24T17:58:12.138Z,39.06
2022-10-24T18:00:40.918Z,39.08
2022-10-24T18:03:09.673Z,39.47
2022-10-24T18:05:39.302Z,39.18
2022-10-24T18:08:09.161Z,39.12
2022-10-24T18:10:38.188Z,39.30
2022-10-24T18:13:07.702Z,39.38
2022-10-24T18:15:37.865Z,39.55
2022-10-24T18:18:06.743Z,39.22
2022-10-24T18:20:35.774Z,39.46
2022-10-24T18:23:04.495Z,39.28
2022-10-24T18:25:32.527Z,39.60
2022-10-24T18:28:00.904Z,39.38
2022-10-24T18:30:29.135Z,39.65
2022-10-24T18:32:58.671Z,39.65
2022-10-24T18:35:28.861Z,39.51
2022-10-24T18:37:57.537Z,39.48
2022-10-24T18:40:26.879Z,39.34
2022-10-24T18:42:58.633Z,39.83
2022-10-24T18:45:28.676Z,39.71
2022-10-24T18:47:58.797Z,39.52
2022-10-24T18:50:28.905Z,39.75
2022-10-24T18:53:04.455Z,39.68
2022-10-24T18:55:35.751Z,39.50
2022-10-24T18:58:06.233Z,39.70
2022-10-24T19:00:38.110Z,39.65
2022-10-24T19:03:18.063Z,39.53
2022-10-24T19:05:51.904Z,39.93
2022-10-24T19:08:25.315Z,39.94
2022-10-24T19:10:56.436Z,39.96
2022-10-24T19:13:25.985Z,39.89
2022-10-24T19:15:58.296Z,39.85
2022-10-24T19:18:29.942Z,39.77
2022-10-24T19:21:00.060Z,40.14
2022-10-24T19:23:28.355Z,40.04
2022-10-24T19:25:56.634Z,39.86
2022-10-24T19:28:24.931Z,39.88
2022-10-24T19:30:54.006Z,40.04
2022-10-24T19:33:25.073Z,40.19
2022-10-24T19:35:54.720Z,39.82
2022-10-24T19:38:22.900Z,40.17
2022-10-24T19:40:52.758Z,40.30
2022-10-24T19:43:22.127Z,39.96
2022-10-24T19:46:07.140Z,40.07
2022-10-24T19:48:38.156Z,40.03
2022-10-24T19:51:11.024Z,40.38
2022-10-24T19:53:40.998Z,40.15
2022-10-24T19:56:11.294Z,40.52
2022-10-24T19:58:39.381Z,40.10
2022-10-24T20:01:08.736Z,40.62
2022-10-24T20:03:37.535Z,40.29
2022-10-24T20:06:07.661Z,40.59
2022-10-24T20:08:36.033Z,40.65
2022-10-24T20:11:05.242Z,40.63
2022-10-24T20:13:33.790Z,40.44
2022-10-24T20:16:04.365Z,40.35
2022-10-24T20:18:33.506Z,40.34
2022-10-24T20:21:04.123Z,40.52
2022-10-24T20:23:34.041Z,40.47
2022-10-24T20:26:03.791Z,40.39
2022-10-24T20:28:35.017Z,40.73
2022-10-24T20:31:03.224Z,40.55
2022-10-24T20:33:31.161Z,40.58
2022-10-24T20:35:59.474Z,40.51
2022-10-24T20:38:27.370Z,40.65
2022-10-24T20:41:02.356Z,40.56
2022-10-24T20:43:30.626Z,40.95
2022-10-24T20:45:59.037Z,40.72
2022-10-24T20:48:26.925Z,41.16
2022-10-24T20:50:54.794Z,41.12
2022-10-24T20:53:22.757Z,40.77
2022-10-24T20:55:50.706Z,40.88
2022-10-24T20:58:19.971Z,40.92
2022-10-24T21:00:47.895Z,40.74
2022-10-24T21:03:15.805Z,40.97
2022-10-24T21:05:43.663Z,40.73
2022-10-24T21:08:11.550Z,41.20
2022-10-24T21:10:39.402Z,41.02
2022-10-24T21:13:07.317Z,41.21
2022-10-24T21:15:36.567Z,40.97
2022-10-24T21:18:04.876Z,41.18
2022-10-24T21:20:32.748Z,41.17
2022-10-24T21:23:00.918Z,40.99
2022-10-24T21:25:28.992Z,40.90
2022-10-24T21:27:57.113Z,41.10
2022-10-24T21:30:25.164Z,40.95
2022-10-24T21:32:54.416Z,41.15
2022-10-24T21:35:22.322Z,41.24
2022-10-24T21:37:50.231Z,41.25
2022-10-24T21:40:18.914Z,41.30
2022-10-24T21:42:47.077Z,41.73
2022-10-24T21:45:15.200Z,41.43
2022-10-24T21:47:43.088Z,41.65
2022-10-24T21:50:12.399Z,41.92
2022-10-24T21:52:40.321Z,42.01
2022-10-24T21:55:08.818Z,42.32
2022-10-24T21:57:36.696Z,42.43
2022-10-24T22:00:05.992Z,42.16
2022-10-24T22:02:34.005Z,42.43
2022-10-24T22:05:01.907Z,42.34
2022-10-24T22:07:31.284Z,42.31
2022-10-24T22:09:59.185Z,42.41
2022-10-24T22:12:27.133Z,42.61
2022-10-24T22:14:55.044Z,42.44
2022-10-24T22:17:22.935Z,42.28
2022-10-24T22:19:50.941Z,42.78
2022-10-24T22:22:18.818Z,42.46
2022-10-24T22:24:48.277Z,42.61
2022-10-24T22:27:16.135Z,42.64
2022-10-24T22:29:44.098Z,42.65
2022-10-24T22:32:15.678Z,42.76
2022-10-24T22:34:44.078Z,42.84
2022-10-24T22:37:24.556Z,42.72
2022-10-24T22:39:54.474Z,43.20
2022-10-24T22:42:22.779Z,43.06
2022-10-24T22:44:51.312Z,43.17
2022-10-24T22:47:40.877Z,42.67
2022-10-24T22:50:21.619Z,43.02
2022-10-24T22:52:50.421Z,43.15
2022-10-24T22:55:30.612Z,42.96
2022-10-24T22:57:58.983Z,43.00
2022-10-24T23:00:27.408Z,43.23
2022-10-24T23:03:04.997Z,42.87
2022-10-24T23:05:42.865Z,43.22
2022-10-24T23:08:28.761Z,43.29
2022-10-24T23:10:58.776Z,43.14
2022-10-24T23:13:27.106Z,43.30
2022-10-24T23:15:59.414Z,43.04
2022-10-24T23:18:27.956Z,43.21
2022-10-24T23:21:04.502Z,43.15
2022-10-24T23:23:32.627Z,43.45
2022-10-24T23:26:09.146Z,43.26
2022-10-24T23:28:45.364Z,43.19
2022-10-24T23:31:13.748Z,43.50
2022-10-24T23:33:42.098Z,43.31
2022-10-24T23:36:20.034Z,43.37
2022-10-24T23:38:48.848Z,43.25
2022-10-24T23:41:18.741Z,43.52
2022-10-24T23:43:47.300Z,43.17
2022-10-24T23:46:25.174Z,43.28
2022-10-24T23:49:17.568Z,43.55
2022-10-24T23:51:56.671Z,43.36
2022-10-24T23:54:27.271Z,42.89
2022-10-24T23:56:57.277Z,43.16
2022-10-24T23:59:25.220Z,43.02
